sensor_id;sensor_type;location;lat;lon;timestamp;pressure;altitude;pressure_sealevel;temperature;humidity
15914;BME280;8055;51.930;8.840;2022-09-09T00:04:37;98863.88;;;16.24;100.00
15914;BME280;8055;51.930;8.840;2022-09-09T00:07:43;98867.19;;;16.26;100.00
15914;BME280;8055;51.930;8.840;2022-09-09T00:13:13;98860.28;;;16.23;100.00
15914;BME280;8055;51.930;8.840;2022-09-09T00:15:52;98859.22;;;16.24;100.00
15914;BME280;8055;51.930;8.840;2022-09-09T00:21:07;98861.97;;;16.24;100.00
15914;BME280;8055;51.930;8.840;2022-09-09T00:26:14;98847.91;;;16.21;100.00
15914;BME280;8055;51.930;8.840;2022-09-09T00:31:20;98854.91;;;16.16;100.00
15914;BME280;8055;51.930;8.840;2022-09-09T00:33:49;98854.22;;;16.21;100.00
15914;BME280;8055;51.930;8.840;2022-09-09T00:36:18;98852.16;;;16.16;100.00
15914;BME280;8055;51.930;8.840;2022-09-09T00:38:56;98847.16;;;16.13;100.00
15914;BME280;8055;51.930;8.840;2022-09-09T00:44:30;98855.63;;;16.12;100.00
15914;BME280;8055;51.930;8.840;2022-09-09T00:49:43;98857.63;;;16.16;100.00
15914;BME280;8055;51.930;8.840;2022-09-09T00:55:09;98849.56;;;16.22;100.00
15914;BME280;8055;51.930;8.840;2022-09-09T00:57:40;98845.53;;;16.24;100.00
15914;BME280;8055;51.930;8.840;2022-09-09T01:00:24;98843.16;;;16.28;100.00
15914;BME280;8055;51.930;8.840;2022-09-09T01:11:24;98857.06;;;16.26;100.00
15914;BME280;8055;51.930;8.840;2022-09-09T01:14:01;98852.81;;;16.30;100.00
15914;BME280;8055;51.930;8.840;2022-09-09T01:16:29;98849.69;;;16.27;100.00
15914;BME280;8055;51.930;8.840;2022-09-09T01:18:57;98848.63;;;16.28;100.00
15914;BME280;8055;51.930;8.840;2022-09-09T01:22:03;98854.09;;;16.28;100.00
15914;BME280;8055;51.930;8.840;2022-09-09T01:25:05;98848.00;;;16.26;100.00
15914;BME280;8055;51.930;8.840;2022-09-09T01:27:37;98847.03;;;16.20;100.00
15914;BME280;8055;51.930;8.840;2022-09-09T01:30:10;98848.13;;;16.19;100.00
15914;BME280;8055;51.930;8.840;2022-09-09T01:32:43;98846.47;;;16.18;100.00
15914;BME280;8055;51.930;8.840;2022-09-09T01:35:37;98859.78;;;16.14;100.00
15914;BME280;8055;51.930;8.840;2022-09-09T01:37:57;98853.97;;;16.11;100.00
15914;BME280;8055;51.930;8.840;2022-09-09T01:40:24;98858.34;;;16.12;100.00
15914;BME280;8055;51.930;8.840;2022-09-09T01:42:49;98856.09;;;16.09;100.00
15914;BME280;8055;51.930;8.840;2022-09-09T01:45:15;98849.41;;;16.05;100.00
15914;BME280;8055;51.930;8.840;2022-09-09T01:47:41;98849.00;;;16.01;100.00
15914;BME280;8055;51.930;8.840;2022-09-09T01:50:08;98856.03;;;15.97;100.00
15914;BME280;8055;51.930;8.840;2022-09-09T01:52:36;98852.00;;;16.00;100.00
15914;BME280;8055;51.930;8.840;2022-09-09T01:55:02;98854.59;;;15.94;100.00
15914;BME280;8055;51.930;8.840;2022-09-09T01:57:33;98846.63;;;15.93;100.00
15914;BME280;8055;51.930;8.840;2022-09-09T02:00:06;98851.28;;;15.92;100.00
15914;BME280;8055;51.930;8.840;2022-09-09T02:02:41;98850.66;;;15.90;100.00
15914;BME280;8055;51.930;8.840;2022-09-09T02:08:08;98845.44;;;15.89;100.00
15914;BME280;8055;51.930;8.840;2022-09-09T02:10:46;98848.63;;;15.86;100.00
15914;BME280;8055;51.930;8.840;2022-09-09T02:13:17;98845.03;;;15.85;100.00
15914;BME280;8055;51.930;8.840;2022-09-09T02:15:49;98842.19;;;15.80;100.00
15914;BME280;8055;51.930;8.840;2022-09-09T02:18:24;98846.56;;;15.81;100.00
15914;BME280;8055;51.930;8.840;2022-09-09T02:20:52;98852.88;;;15.82;100.00
15914;BME280;8055;51.930;8.840;2022-09-09T02:23:19;98850.59;;;15.79;100.00
15914;BME280;8055;51.930;8.840;2022-09-09T02:25:45;98844.75;;;15.75;100.00
15914;BME280;8055;51.930;8.840;2022-09-09T02:28:13;98850.03;;;15.77;100.00
15914;BME280;8055;51.930;8.840;2022-09-09T02:30:42;98842.75;;;15.70;100.00
15914;BME280;8055;51.930;8.840;2022-09-09T02:33:08;98845.09;;;15.67;100.00
15914;BME280;8055;51.930;8.840;2022-09-09T02:35:38;98849.69;;;15.66;100.00
15914;BME280;8055;51.930;8.840;2022-09-09T02:38:08;98851.41;;;15.67;100.00
15914;BME280;8055;51.930;8.840;2022-09-09T02:40:35;98859.81;;;15.66;100.00
15914;BME280;8055;51.930;8.840;2022-09-09T02:43:01;98857.06;;;15.66;100.00
15914;BME280;8055;51.930;8.840;2022-09-09T02:45:36;98852.88;;;15.63;100.00
15914;BME280;8055;51.930;8.840;2022-09-09T02:48:30;98857.31;;;15.64;100.00
15914;BME280;8055;51.930;8.840;2022-09-09T02:51:46;98854.97;;;15.68;100.00
15914;BME280;8055;51.930;8.840;2022-09-09T02:54:35;98850.13;;;15.70;100.00
15914;BME280;8055;51.930;8.840;2022-09-09T02:57:22;98854.88;;;15.75;100.00
15914;BME280;8055;51.930;8.840;2022-09-09T02:59:49;98857.38;;;15.76;100.00
15914;BME280;8055;51.930;8.840;2022-09-09T03:02:15;98847.41;;;15.82;100.00
15914;BME280;8055;51.930;8.840;2022-09-09T03:04:40;98857.31;;;15.83;100.00
15914;BME280;8055;51.930;8.840;2022-09-09T03:07:09;98852.94;;;15.93;100.00
15914;BME280;8055;51.930;8.840;2022-09-09T03:09:35;98857.59;;;15.93;100.00
15914;BME280;8055;51.930;8.840;2022-09-09T03:12:00;98863.63;;;15.95;100.00
15914;BME280;8055;51.930;8.840;2022-09-09T03:14:26;98864.88;;;15.99;100.00
15914;BME280;8055;51.930;8.840;2022-09-09T03:16:52;98860.22;;;16.00;100.00
15914;BME280;8055;51.930;8.840;2022-09-09T03:19:18;98862.72;;;16.01;100.00
15914;BME280;8055;51.930;8.840;2022-09-09T03:21:45;98865.22;;;16.03;100.00
15914;BME280;8055;51.930;8.840;2022-09-09T03:24:11;98859.97;;;16.01;100.00
15914;BME280;8055;51.930;8.840;2022-09-09T03:26:36;98861.88;;;16.01;100.00
15914;BME280;8055;51.930;8.840;2022-09-09T03:29:03;98863.41;;;15.96;100.00
15914;BME280;8055;51.930;8.840;2022-09-09T03:31:32;98856.28;;;15.95;100.00
15914;BME280;8055;51.930;8.840;2022-09-09T03:33:57;98865.34;;;15.96;100.00
15914;BME280;8055;51.930;8.840;2022-09-09T03:36:23;98862.34;;;15.98;100.00
15914;BME280;8055;51.930;8.840;2022-09-09T03:38:49;98864.72;;;15.94;100.00
15914;BME280;8055;51.930;8.840;2022-09-09T03:41:15;98859.03;;;15.95;100.00
15914;BME280;8055;51.930;8.840;2022-09-09T03:43:40;98857.59;;;15.93;100.00
15914;BME280;8055;51.930;8.840;2022-09-09T03:46:07;98864.13;;;15.92;100.00
15914;BME280;8055;51.930;8.840;2022-09-09T03:48:32;98857.81;;;15.91;100.00
15914;BME280;8055;51.930;8.840;2022-09-09T03:50:57;98856.13;;;15.90;100.00
15914;BME280;8055;51.930;8.840;2022-09-09T03:53:25;98855.91;;;15.92;100.00
15914;BME280;8055;51.930;8.840;2022-09-09T03:55:53;98853.19;;;15.92;100.00
15914;BME280;8055;51.930;8.840;2022-09-09T03:58:20;98847.72;;;15.92;100.00
15914;BME280;8055;51.930;8.840;2022-09-09T04:00:57;98852.47;;;15.96;100.00
15914;BME280;8055;51.930;8.840;2022-09-09T04:03:24;98847.34;;;16.00;100.00
15914;BME280;8055;51.930;8.840;2022-09-09T04:05:53;98855.91;;;15.92;100.00
15914;BME280;8055;51.930;8.840;2022-09-09T04:08:20;98844.97;;;15.92;100.00
15914;BME280;8055;51.930;8.840;2022-09-09T04:10:46;98849.84;;;15.90;100.00
15914;BME280;8055;51.930;8.840;2022-09-09T04:13:13;98844.97;;;15.92;100.00
15914;BME280;8055;51.930;8.840;2022-09-09T04:15:40;98847.31;;;15.88;100.00
15914;BME280;8055;51.930;8.840;2022-09-09T04:18:05;98848.38;;;15.87;100.00
15914;BME280;8055;51.930;8.840;2022-09-09T04:20:31;98852.19;;;15.86;100.00
15914;BME280;8055;51.930;8.840;2022-09-09T04:22:57;98849.69;;;15.85;100.00
15914;BME280;8055;51.930;8.840;2022-09-09T04:25:23;98849.69;;;15.85;100.00
15914;BME280;8055;51.930;8.840;2022-09-09T04:27:56;98853.72;;;15.82;100.00
15914;BME280;8055;51.930;8.840;2022-09-09T04:30:22;98866.56;;;15.82;100.00
15914;BME280;8055;51.930;8.840;2022-09-09T04:32:47;98870.38;;;15.81;100.00
15914;BME280;8055;51.930;8.840;2022-09-09T04:35:13;98870.38;;;15.81;100.00
15914;BME280;8055;51.930;8.840;2022-09-09T04:37:38;98871.22;;;15.81;100.00
15914;BME280;8055;51.930;8.840;2022-09-09T04:40:04;98869.41;;;15.75;100.00
15914;BME280;8055;51.930;8.840;2022-09-09T04:42:30;98872.84;;;15.70;100.00
15914;BME280;8055;51.930;8.840;2022-09-09T04:44:55;98879.22;;;15.64;100.00
15914;BME280;8055;51.930;8.840;2022-09-09T04:47:21;98882.03;;;15.58;100.00
15914;BME280;8055;51.930;8.840;2022-09-09T04:49:46;98881.25;;;15.50;100.00
15914;BME280;8055;51.930;8.840;2022-09-09T04:52:12;98879.22;;;15.46;100.00
15914;BME280;8055;51.930;8.840;2022-09-09T04:54:38;98881.13;;;15.45;100.00
15914;BME280;8055;51.930;8.840;2022-09-09T04:57:04;98878.25;;;15.40;100.00
15914;BME280;8055;51.930;8.840;2022-09-09T04:59:29;98880.53;;;15.43;100.00
15914;BME280;8055;51.930;8.840;2022-09-09T05:01:55;98879.69;;;15.43;100.00
15914;BME280;8055;51.930;8.840;2022-09-09T05:04:21;98877.63;;;15.38;100.00
15914;BME280;8055;51.930;8.840;2022-09-09T05:06:46;98887.16;;;15.36;100.00
15914;BME280;8055;51.930;8.840;2022-09-09T05:09:12;98889.88;;;15.36;100.00
15914;BME280;8055;51.930;8.840;2022-09-09T05:11:37;98890.09;;;15.34;100.00
15914;BME280;8055;51.930;8.840;2022-09-09T05:14:03;98883.19;;;15.32;100.00
15914;BME280;8055;51.930;8.840;2022-09-09T05:16:29;98883.34;;;15.37;100.00
15914;BME280;8055;51.930;8.840;2022-09-09T05:18:55;98883.56;;;15.35;100.00
15914;BME280;8055;51.930;8.840;2022-09-09T05:21:22;98885.69;;;15.33;100.00
15914;BME280;8055;51.930;8.840;2022-09-09T05:23:48;98886.53;;;15.34;100.00
15914;BME280;8055;51.930;8.840;2022-09-09T05:26:16;98881.06;;;15.34;100.00
15914;BME280;8055;51.930;8.840;2022-09-09T05:28:43;98885.25;;;15.36;100.00
15914;BME280;8055;51.930;8.840;2022-09-09T05:31:10;98873.47;;;15.36;100.00
15914;BME280;8055;51.930;8.840;2022-09-09T05:33:40;98886.53;;;15.34;100.00
15914;BME280;8055;51.930;8.840;2022-09-09T05:36:08;98881.44;;;15.37;100.00
15914;BME280;8055;51.930;8.840;2022-09-09T05:38:34;98882.63;;;15.41;100.00
15914;BME280;8055;51.930;8.840;2022-09-09T05:41:01;98884.09;;;15.44;100.00
15914;BME280;8055;51.930;8.840;2022-09-09T05:43:28;98881.97;;;15.46;100.00
15914;BME280;8055;51.930;8.840;2022-09-09T05:46:08;98878.31;;;15.52;100.00
15914;BME280;8055;51.930;8.840;2022-09-09T05:48:39;98883.78;;;15.52;100.00
15914;BME280;8055;51.930;8.840;2022-09-09T05:51:07;98880.59;;;15.55;100.00
15914;BME280;8055;51.930;8.840;2022-09-09T05:53:33;98887.63;;;15.63;100.00
15914;BME280;8055;51.930;8.840;2022-09-09T05:56:20;98886.44;;;15.77;100.00
15914;BME280;8055;51.930;8.840;2022-09-09T05:58:47;98891.22;;;15.82;100.00
15914;BME280;8055;51.930;8.840;2022-09-09T06:01:15;98891.75;;;15.90;100.00
15914;BME280;8055;51.930;8.840;2022-09-09T06:03:41;98891.28;;;15.93;100.00
15914;BME280;8055;51.930;8.840;2022-09-09T06:06:12;98888.91;;;15.97;100.00
15914;BME280;8055;51.930;8.840;2022-09-09T06:08:40;98889.88;;;16.03;100.00
15914;BME280;8055;51.930;8.840;2022-09-09T06:11:09;98885.59;;;16.07;100.00
15914;BME280;8055;51.930;8.840;2022-09-09T06:13:35;98878.69;;;16.04;100.00
15914;BME280;8055;51.930;8.840;2022-09-09T06:16:02;98881.66;;;16.03;100.00
15914;BME280;8055;51.930;8.840;2022-09-09T06:18:28;98889.63;;;16.04;100.00
15914;BME280;8055;51.930;8.840;2022-09-09T06:21:03;98884.31;;;16.09;100.00
15914;BME280;8055;51.930;8.840;2022-09-09T06:23:30;98875.88;;;16.11;100.00
15914;BME280;8055;51.930;8.840;2022-09-09T06:26:07;98883.84;;;16.12;100.00
15914;BME280;8055;51.930;8.840;2022-09-09T06:28:35;98886.59;;;16.12;100.00
15914;BME280;8055;51.930;8.840;2022-09-09T06:31:03;98887.78;;;16.16;100.00
15914;BME280;8055;51.930;8.840;2022-09-09T06:33:37;98878.97;;;16.14;100.00
15914;BME280;8055;51.930;8.840;2022-09-09T06:36:07;98879.56;;;16.16;100.00
15914;BME280;8055;51.930;8.840;2022-09-09T06:38:32;98884.34;;;16.21;100.00
15914;BME280;8055;51.930;8.840;2022-09-09T06:40:59;98886.25;;;16.21;100.00
15914;BME280;8055;51.930;8.840;2022-09-09T06:43:25;98884.94;;;16.23;100.00
15914;BME280;8055;51.930;8.840;2022-09-09T06:46:21;98887.19;;;16.26;100.00
15914;BME280;8055;51.930;8.840;2022-09-09T06:48:47;98889.94;;;16.26;100.00
15914;BME280;8055;51.930;8.840;2022-09-09T06:51:20;98892.81;;;16.31;100.00
15914;BME280;8055;51.930;8.840;2022-09-09T06:53:53;98892.97;;;16.36;100.00
15914;BME280;8055;51.930;8.840;2022-09-09T06:56:27;98890.13;;;16.43;100.00
15914;BME280;8055;51.930;8.840;2022-09-09T06:58:55;98897.50;;;16.42;100.00
15914;BME280;8055;51.930;8.840;2022-09-09T07:01:23;98893.44;;;16.45;100.00
15914;BME280;8055;51.930;8.840;2022-09-09T07:03:53;98901.13;;;16.55;100.00
15914;BME280;8055;51.930;8.840;2022-09-09T07:06:33;98899.56;;;16.59;100.00
15914;BME280;8055;51.930;8.840;2022-09-09T07:09:02;98896.22;;;16.57;100.00
15914;BME280;8055;51.930;8.840;2022-09-09T07:11:32;98899.31;;;16.60;100.00
15914;BME280;8055;51.930;8.840;2022-09-09T07:13:59;98891.69;;;16.62;100.00
15914;BME280;8055;51.930;8.840;2022-09-09T07:16:26;98895.63;;;16.66;100.00
15914;BME280;8055;51.930;8.840;2022-09-09T07:18:53;98902.06;;;16.72;100.00
15914;BME280;8055;51.930;8.840;2022-09-09T07:21:23;98901.63;;;16.75;100.00
15914;BME280;8055;51.930;8.840;2022-09-09T07:23:49;98900.34;;;16.78;100.00
15914;BME280;8055;51.930;8.840;2022-09-09T07:26:17;98905.81;;;16.78;100.00
15914;BME280;8055;51.930;8.840;2022-09-09T07:28:45;98905.94;;;16.83;100.00
15914;BME280;8055;51.930;8.840;2022-09-09T07:31:19;98899.47;;;16.89;100.00
15914;BME280;8055;51.930;8.840;2022-09-09T07:33:46;98911.41;;;16.95;100.00
15914;BME280;8055;51.930;8.840;2022-09-09T07:38:45;98910.59;;;17.06;100.00
15914;BME280;8055;51.930;8.840;2022-09-09T07:41:14;98922.53;;;17.11;100.00
15914;BME280;8055;51.930;8.840;2022-09-09T07:43:44;98919.78;;;17.11;100.00
15914;BME280;8055;51.930;8.840;2022-09-09T07:46:11;98920.38;;;17.14;100.00
15914;BME280;8055;51.930;8.840;2022-09-09T07:48:38;98918.09;;;17.10;100.00
15914;BME280;8055;51.930;8.840;2022-09-09T07:51:11;98920.13;;;17.15;100.00
15914;BME280;8055;51.930;8.840;2022-09-09T07:53:38;98918.84;;;17.18;100.00
15914;BME280;8055;51.930;8.840;2022-09-09T07:56:06;98922.50;;;17.23;100.00
15914;BME280;8055;51.930;8.840;2022-09-09T07:58:32;98914.66;;;17.27;100.00
15914;BME280;8055;51.930;8.840;2022-09-09T08:00:58;98920.84;;;17.34;100.00
15914;BME280;8055;51.930;8.840;2022-09-09T08:03:23;98917.13;;;17.40;100.00
15914;BME280;8055;51.930;8.840;2022-09-09T08:05:49;98916.66;;;17.43;100.00
15914;BME280;8055;51.930;8.840;2022-09-09T08:08:14;98906.72;;;17.42;100.00
15914;BME280;8055;51.930;8.840;2022-09-09T08:10:41;98910.19;;;17.49;100.00
15914;BME280;8055;51.930;8.840;2022-09-09T08:13:08;98911.84;;;17.50;100.00
15914;BME280;8055;51.930;8.840;2022-09-09T08:15:33;98918.91;;;17.58;100.00
15914;BME280;8055;51.930;8.840;2022-09-09T08:17:59;98913.16;;;17.60;100.00
15914;BME280;8055;51.930;8.840;2022-09-09T08:20:25;98919.94;;;17.69;100.00
15914;BME280;8055;51.930;8.840;2022-09-09T08:22:50;98910.00;;;17.79;100.00
15914;BME280;8055;51.930;8.840;2022-09-09T08:25:15;98906.63;;;17.89;100.00
15914;BME280;8055;51.930;8.840;2022-09-09T08:27:41;98912.44;;;18.04;100.00
15914;BME280;8055;51.930;8.840;2022-09-09T08:30:07;98904.81;;;18.23;100.00
15914;BME280;8055;51.930;8.840;2022-09-09T08:32:32;98904.88;;;18.40;100.00
15914;BME280;8055;51.930;8.840;2022-09-09T08:34:58;98908.69;;;18.39;100.00
15914;BME280;8055;51.930;8.840;2022-09-09T08:37:23;98914.94;;;18.35;100.00
15914;BME280;8055;51.930;8.840;2022-09-09T08:39:48;98924.94;;;18.41;100.00
15914;BME280;8055;51.930;8.840;2022-09-09T08:50:34;98930.97;;;18.26;100.00
15914;BME280;8055;51.930;8.840;2022-09-09T08:53:20;98935.91;;;18.24;100.00
15914;BME280;8055;51.930;8.840;2022-09-09T08:55:49;98932.00;;;18.08;100.00
15914;BME280;8055;51.930;8.840;2022-09-09T09:09:25;98933.84;;;18.31;100.00
15914;BME280;8055;51.930;8.840;2022-09-09T09:11:57;98934.03;;;18.41;100.00
15914;BME280;8055;51.930;8.840;2022-09-09T09:14:29;98934.13;;;18.46;100.00
15914;BME280;8055;51.930;8.840;2022-09-09T09:17:06;98939.03;;;18.61;100.00
15914;BME280;8055;51.930;8.840;2022-09-09T09:19:38;98932.91;;;18.71;100.00
15914;BME280;8055;51.930;8.840;2022-09-09T09:27:40;98922.59;;;19.12;100.00
15914;BME280;8055;51.930;8.840;2022-09-09T09:30:14;98931.44;;;19.36;100.00
15914;BME280;8055;51.930;8.840;2022-09-09T09:32:53;98920.53;;;19.63;100.00
15914;BME280;8055;51.930;8.840;2022-09-09T09:35:20;98908.41;;;19.81;100.00
15914;BME280;8055;51.930;8.840;2022-09-09T09:37:45;98905.94;;;20.06;100.00
15914;BME280;8055;51.930;8.840;2022-09-09T09:40:19;98895.25;;;20.42;100.00
15914;BME280;8055;51.930;8.840;2022-09-09T09:43:00;98892.63;;;20.52;100.00
15914;BME280;8055;51.930;8.840;2022-09-09T09:45:42;98902.19;;;20.45;100.00
15914;BME280;8055;51.930;8.840;2022-09-09T09:48:12;98902.53;;;20.21;100.00
15914;BME280;8055;51.930;8.840;2022-09-09T09:53:27;98915.28;;;20.05;100.00
15914;BME280;8055;51.930;8.840;2022-09-09T09:56:03;98922.50;;;19.84;100.00
15914;BME280;8055;51.930;8.840;2022-09-09T09:58:36;98927.50;;;19.49;100.00
15914;BME280;8055;51.930;8.840;2022-09-09T10:01:02;98921.25;;;19.36;100.00
15914;BME280;8055;51.930;8.840;2022-09-09T10:03:32;98929.88;;;19.23;100.00
15914;BME280;8055;51.930;8.840;2022-09-09T10:06:02;98930.13;;;19.38;100.00
15914;BME280;8055;51.930;8.840;2022-09-09T10:08:28;98937.28;;;19.39;100.00
15914;BME280;8055;51.930;8.840;2022-09-09T10:16:37;98935.06;;;19.19;100.00
15914;BME280;8055;51.930;8.840;2022-09-09T10:19:10;98927.16;;;19.06;100.00
15914;BME280;8055;51.930;8.840;2022-09-09T10:21:56;98928.91;;;18.95;100.00
15914;BME280;8055;51.930;8.840;2022-09-09T10:30:06;98920.06;;;18.60;100.00
15914;BME280;8055;51.930;8.840;2022-09-09T10:52:28;98905.84;;;18.97;100.00
15914;BME280;8055;51.930;8.840;2022-09-09T10:55:17;98918.31;;;19.04;100.00
15914;BME280;8055;51.930;8.840;2022-09-09T10:57:51;98910.25;;;18.98;100.00
15914;BME280;8055;51.930;8.840;2022-09-09T11:00:45;98913.59;;;19.00;100.00
15914;BME280;8055;51.930;8.840;2022-09-09T11:03:22;98911.56;;;19.12;100.00
15914;BME280;8055;51.930;8.840;2022-09-09T11:06:09;98916.63;;;19.20;100.00
15914;BME280;8055;51.930;8.840;2022-09-09T11:08:39;98904.00;;;19.41;100.00
15914;BME280;8055;51.930;8.840;2022-09-09T11:16:39;98912.53;;;19.83;100.00
15914;BME280;8055;51.930;8.840;2022-09-09T11:22:35;98899.47;;;19.96;100.00
15914;BME280;8055;51.930;8.840;2022-09-09T11:31:17;98900.59;;;20.22;100.00
15914;BME280;8055;51.930;8.840;2022-09-09T11:33:58;98909.69;;;20.22;100.00
15914;BME280;8055;51.930;8.840;2022-09-09T11:41:43;98896.53;;;20.56;100.00
15914;BME280;8055;51.930;8.840;2022-09-09T11:44:17;98907.38;;;21.00;100.00
15914;BME280;8055;51.930;8.840;2022-09-09T11:46:46;98901.88;;;21.43;100.00
15914;BME280;8055;51.930;8.840;2022-09-09T11:49:27;98896.50;;;21.74;100.00
15914;BME280;8055;51.930;8.840;2022-09-09T11:51:53;98897.91;;;21.76;100.00
15914;BME280;8055;51.930;8.840;2022-09-09T11:54:31;98881.09;;;21.93;100.00
15914;BME280;8055;51.930;8.840;2022-09-09T11:56:57;98891.47;;;21.65;100.00
15914;BME280;8055;51.930;8.840;2022-09-09T11:59:25;98896.38;;;21.48;100.00
15914;BME280;8055;51.930;8.840;2022-09-09T12:01:57;98905.63;;;21.26;100.00
15914;BME280;8055;51.930;8.840;2022-09-09T12:06:55;98900.63;;;20.81;100.00
15914;BME280;8055;51.930;8.840;2022-09-09T12:12:26;98907.41;;;20.41;100.00
15914;BME280;8055;51.930;8.840;2022-09-09T12:17:42;98905.69;;;20.35;100.00
15914;BME280;8055;51.930;8.840;2022-09-09T12:20:15;98902.63;;;20.59;100.00
15914;BME280;8055;51.930;8.840;2022-09-09T12:30:17;98901.44;;;21.19;100.00
15914;BME280;8055;51.930;8.840;2022-09-09T12:32:42;98898.13;;;21.59;100.00
15914;BME280;8055;51.930;8.840;2022-09-09T12:35:22;98888.41;;;22.40;100.00
15914;BME280;8055;51.930;8.840;2022-09-09T12:37:54;98888.44;;;22.81;83.13
15914;BME280;8055;51.930;8.840;2022-09-09T12:40:30;98886.78;;;22.44;74.14
15914;BME280;8055;51.930;8.840;2022-09-09T12:42:57;98899.47;;;22.20;69.65
15914;BME280;8055;51.930;8.840;2022-09-09T12:45:31;98889.25;;;22.71;72.28
15914;BME280;8055;51.930;8.840;2022-09-09T12:48:04;98887.88;;;22.69;69.46
15914;BME280;8055;51.930;8.840;2022-09-09T12:50:37;98876.53;;;23.11;70.15
15914;BME280;8055;51.930;8.840;2022-09-09T12:53:08;98870.88;;;23.47;68.18
15914;BME280;8055;51.930;8.840;2022-09-09T12:55:36;98876.59;;;23.81;67.25
15914;BME280;8055;51.930;8.840;2022-09-09T12:58:04;98864.19;;;23.73;65.33
15914;BME280;8055;51.930;8.840;2022-09-09T13:00:32;98870.28;;;23.65;62.33
15914;BME280;8055;51.930;8.840;2022-09-09T13:02:59;98863.44;;;23.37;57.17
15914;BME280;8055;51.930;8.840;2022-09-09T13:05:36;98861.97;;;23.70;57.44
15914;BME280;8055;51.930;8.840;2022-09-09T13:08:11;98864.00;;;23.34;59.43
15914;BME280;8055;51.930;8.840;2022-09-09T13:10:42;98858.94;;;23.56;58.48
15914;BME280;8055;51.930;8.840;2022-09-09T13:13:17;98861.84;;;23.11;58.53
15914;BME280;8055;51.930;8.840;2022-09-09T13:15:53;98860.47;;;22.67;60.28
15914;BME280;8055;51.930;8.840;2022-09-09T13:18:22;98854.94;;;22.26;61.92
15914;BME280;8055;51.930;8.840;2022-09-09T13:20:49;98858.44;;;22.01;61.00
15914;BME280;8055;51.930;8.840;2022-09-09T13:23:16;98859.47;;;21.80;61.08
15914;BME280;8055;51.930;8.840;2022-09-09T13:25:56;98861.66;;;21.67;63.30
15914;BME280;8055;51.930;8.840;2022-09-09T13:28:24;98861.53;;;21.42;63.25
15914;BME280;8055;51.930;8.840;2022-09-09T13:31:04;98863.94;;;21.28;63.79
15914;BME280;8055;51.930;8.840;2022-09-09T13:33:38;98876.81;;;21.12;64.86
15914;BME280;8055;51.930;8.840;2022-09-09T13:36:07;98872.22;;;20.86;66.85
15914;BME280;8055;51.930;8.840;2022-09-09T13:38:37;98868.78;;;20.68;70.10
15914;BME280;8055;51.930;8.840;2022-09-09T13:41:06;98881.34;;;20.54;70.27
15914;BME280;8055;51.930;8.840;2022-09-09T13:43:42;98874.72;;;20.87;71.13
15914;BME280;8055;51.930;8.840;2022-09-09T13:46:32;98873.22;;;20.74;74.56
15914;BME280;8055;51.930;8.840;2022-09-09T13:51:41;98873.25;;;20.47;75.03
15914;BME280;8055;51.930;8.840;2022-09-09T13:54:09;98866.34;;;20.77;75.04
15914;BME280;8055;51.930;8.840;2022-09-09T13:56:36;98866.22;;;20.99;73.17
15914;BME280;8055;51.930;8.840;2022-09-09T13:59:04;98856.88;;;21.00;71.41
15914;BME280;8055;51.930;8.840;2022-09-09T14:01:30;98849.13;;;20.97;70.46
15914;BME280;8055;51.930;8.840;2022-09-09T14:03:56;98851.25;;;20.85;69.30
15914;BME280;8055;51.930;8.840;2022-09-09T14:06:22;98849.88;;;20.87;70.94
15914;BME280;8055;51.930;8.840;2022-09-09T14:08:51;98846.91;;;20.99;70.21
15914;BME280;8055;51.930;8.840;2022-09-09T14:11:17;98854.75;;;21.17;68.14
15914;BME280;8055;51.930;8.840;2022-09-09T14:13:43;98850.66;;;21.25;68.10
15914;BME280;8055;51.930;8.840;2022-09-09T14:16:08;98848.56;;;21.37;66.35
15914;BME280;8055;51.930;8.840;2022-09-09T14:18:35;98847.97;;;21.35;67.05
15914;BME280;8055;51.930;8.840;2022-09-09T14:21:00;98845.81;;;21.47;66.87
15914;BME280;8055;51.930;8.840;2022-09-09T14:23:28;98843.91;;;21.58;65.71
15914;BME280;8055;51.930;8.840;2022-09-09T14:25:54;98843.97;;;21.74;64.72
15914;BME280;8055;51.930;8.840;2022-09-09T14:28:19;98843.22;;;21.99;66.03
15914;BME280;8055;51.930;8.840;2022-09-09T14:30:45;98837.13;;;21.91;62.93
15914;BME280;8055;51.930;8.840;2022-09-09T14:33:13;98830.78;;;21.91;63.82
15914;BME280;8055;51.930;8.840;2022-09-09T14:35:39;98831.88;;;21.95;63.78
15914;BME280;8055;51.930;8.840;2022-09-09T14:38:06;98842.69;;;22.07;61.67
15914;BME280;8055;51.930;8.840;2022-09-09T14:40:31;98826.44;;;22.26;61.99
15914;BME280;8055;51.930;8.840;2022-09-09T14:42:58;98834.19;;;22.49;59.81
15914;BME280;8055;51.930;8.840;2022-09-09T14:45:24;98827.56;;;22.45;60.25
15914;BME280;8055;51.930;8.840;2022-09-09T14:47:51;98826.72;;;22.45;60.46
15914;BME280;8055;51.930;8.840;2022-09-09T14:50:17;98826.16;;;22.48;61.41
15914;BME280;8055;51.930;8.840;2022-09-09T14:52:43;98823.09;;;22.24;59.47
15914;BME280;8055;51.930;8.840;2022-09-09T14:55:08;98820.28;;;21.98;58.13
15914;BME280;8055;51.930;8.840;2022-09-09T14:57:34;98819.97;;;21.79;57.38
15914;BME280;8055;51.930;8.840;2022-09-09T15:00:02;98818.13;;;22.21;57.64
15914;BME280;8055;51.930;8.840;2022-09-09T15:02:28;98819.25;;;22.35;57.31
15914;BME280;8055;51.930;8.840;2022-09-09T15:04:55;98813.13;;;22.17;57.34
15914;BME280;8055;51.930;8.840;2022-09-09T15:07:22;98813.06;;;21.92;58.77
15914;BME280;8055;51.930;8.840;2022-09-09T15:09:48;98814.72;;;21.83;59.33
15914;BME280;8055;51.930;8.840;2022-09-09T15:12:14;98816.59;;;21.67;58.86
15914;BME280;8055;51.930;8.840;2022-09-09T15:14:39;98834.25;;;21.56;57.59
15914;BME280;8055;51.930;8.840;2022-09-09T15:17:05;98833.63;;;21.43;59.25
15914;BME280;8055;51.930;8.840;2022-09-09T15:19:30;98836.66;;;21.37;59.28
15914;BME280;8055;51.930;8.840;2022-09-09T15:21:56;98842.13;;;21.32;58.77
15914;BME280;8055;51.930;8.840;2022-09-09T15:24:21;98843.50;;;21.29;60.08
15914;BME280;8055;51.930;8.840;2022-09-09T15:26:47;98835.00;;;21.36;59.26
15914;BME280;8055;51.930;8.840;2022-09-09T15:29:12;98843.06;;;21.47;59.31
15914;BME280;8055;51.930;8.840;2022-09-09T15:31:38;98842.78;;;21.44;59.02